< < Back
Terminal Aerodrome Forecast


Current Version              Previous Versions:   1  2  3  4  5  6  7  8  9  

Terminal Aerodrome Forecast

776
FTUS42 KGSP 270528
TAFAND
TAF
KAND 270528Z 2706/2806 06006KT P6SM BKN040
     FM271000 VRB03KT P6SM SCT050
     FM271800 29004KT P6SM FEW250
     FM280300 04005KT P6SM SCT250=

Latest METAR

427
SAUS70 KWBC 272000 RRD
MTRAND
METAR KAND 271956Z AUTO 25010KT 10SM CLR 21/04 A2983 RMK AO2 SLP097
T02110044


USA.gov is the U.S. government's official web portal to all federal, state and local government web resources and services.